Latonia, Mississippi
Current Conditions -  °F | °C
As of 6:56 PM on Friday 28 Nov 2014 (Local Time) from KMOB Reporting Station
Clear Clear  
Wind Chill: 45°   Ceiling: Unl
Heat Index: 45°   Visibility: 10mi
Dew Point: 33°   Wind: 3mph
Humidity: 63%   Direction: 200°SSW
Pressure: 30.31"   Gusts: NA
Location:  30.8443°N, 88.5703°W
Report Text: KMOB 290056Z 20003KT 10SM CLR 07/01 A3031 RMK AO2 SLP263 T00720006
Loading
Personal Weather Stations






























Interactive Weather Map New forecast layout! Learn more

10-Day Weather Forecast

Advertisements
Track Severe Weather on mobile